createdAt,value
2019-02-23T00:00:57.741Z,3.20
2019-02-23T00:01:57.751Z,3.24
2019-02-23T00:02:57.761Z,3.28
2019-02-23T00:03:57.768Z,3.17
2019-02-23T00:04:57.778Z,3.15
2019-02-23T00:05:57.785Z,3.14
2019-02-23T00:06:57.795Z,3.10
2019-02-23T00:07:57.808Z,3.08
2019-02-23T00:08:57.816Z,3.08
2019-02-23T00:09:57.823Z,3.08
2019-02-23T00:10:57.834Z,3.05
2019-02-23T00:11:57.840Z,3.06
2019-02-23T00:12:57.854Z,3.05
2019-02-23T00:13:57.857Z,3.10
2019-02-23T00:14:57.869Z,3.11
2019-02-23T00:15:57.882Z,3.18
2019-02-23T00:16:57.887Z,3.13
2019-02-23T00:17:57.895Z,3.11
2019-02-23T00:18:57.920Z,3.06
2019-02-23T00:19:57.911Z,3.05
2019-02-23T00:20:57.928Z,3.10
2019-02-23T00:21:57.930Z,3.14
2019-02-23T00:22:57.943Z,3.13
2019-02-23T00:23:57.947Z,3.11
2019-02-23T00:24:57.957Z,3.11
2019-02-23T00:25:57.966Z,3.10
2019-02-23T00:26:57.972Z,3.06
2019-02-23T00:27:57.983Z,3.06
2019-02-23T00:28:57.992Z,3.20
2019-02-23T00:29:58.002Z,3.21
2019-02-23T00:30:58.009Z,3.14
2019-02-23T00:31:58.019Z,3.20
2019-02-23T00:32:58.075Z,3.21
2019-02-23T00:33:58.037Z,3.21
2019-02-23T00:34:58.050Z,3.20
2019-02-23T00:35:58.055Z,3.18
2019-02-23T00:36:58.064Z,3.14
2019-02-23T00:37:58.071Z,3.17
2019-02-23T00:38:58.082Z,3.15
2019-02-23T00:39:58.089Z,3.14
2019-02-23T00:40:58.098Z,3.11
2019-02-23T00:41:58.107Z,3.10
2019-02-23T00:42:58.122Z,3.11
2019-02-23T00:43:58.126Z,3.24
2019-02-23T00:44:58.135Z,3.06
2019-02-23T00:45:58.140Z,3.13
2019-02-23T00:46:58.150Z,3.08
2019-02-23T00:47:58.161Z,3.08
2019-02-23T00:48:58.170Z,3.10
2019-02-23T00:49:58.176Z,3.11
2019-02-23T00:50:58.187Z,3.08
2019-02-23T00:51:58.195Z,3.06
2019-02-23T00:52:58.203Z,3.06
2019-02-23T00:53:58.213Z,3.08
2019-02-23T00:54:58.224Z,3.03
2019-02-23T00:55:58.231Z,3.05
2019-02-23T00:56:58.239Z,3.15
2019-02-23T00:57:58.251Z,3.05
2019-02-23T00:58:58.262Z,3.08
2019-02-23T00:59:58.265Z,3.02
2019-02-23T01:00:58.275Z,2.99
2019-02-23T01:01:58.289Z,3.06
2019-02-23T01:02:58.298Z,3.03
2019-02-23T01:03:58.302Z,3.02
2019-02-23T01:04:58.316Z,3.02
2019-02-23T01:05:58.321Z,3.10
2019-02-23T01:06:58.351Z,3.05
2019-02-23T01:07:58.342Z,3.14
2019-02-23T01:08:58.349Z,3.06
2019-02-23T01:09:58.358Z,3.10
2019-02-23T01:10:58.576Z,3.08
2019-02-23T01:11:58.375Z,3.05
2019-02-23T01:12:58.382Z,3.08
2019-02-23T01:13:58.394Z,3.10
2019-02-23T01:14:58.403Z,3.08
2019-02-23T01:15:58.650Z,3.21
2019-02-23T01:16:58.418Z,3.05
2019-02-23T01:17:58.424Z,3.10
2019-02-23T01:18:58.436Z,3.14
2019-02-23T01:19:58.446Z,3.10
2019-02-23T01:20:58.451Z,3.03
2019-02-23T01:21:58.464Z,3.06
2019-02-23T01:22:58.473Z,3.10
2019-02-23T01:23:58.482Z,3.10
2019-02-23T01:24:58.489Z,3.15
2019-02-23T01:25:58.497Z,3.06
2019-02-23T01:26:58.506Z,3.17
2019-02-23T01:27:58.516Z,3.08
2019-02-23T01:28:58.525Z,3.14
2019-02-23T01:29:58.536Z,3.06
2019-02-23T01:30:58.545Z,3.11
2019-02-23T01:31:58.553Z,3.08
2019-02-23T01:32:58.560Z,3.08
2019-02-23T01:33:58.570Z,3.10
2019-02-23T01:34:58.582Z,3.06
2019-02-23T01:35:58.587Z,3.05
2019-02-23T01:36:58.595Z,3.10
2019-02-23T01:37:58.604Z,3.13
2019-02-23T01:38:58.616Z,3.17
2019-02-23T01:39:58.623Z,3.10
2019-02-23T01:40:58.631Z,3.06
2019-02-23T01:41:58.641Z,2.99
2019-02-23T01:42:58.648Z,3.13
2019-02-23T01:44:00.565Z,3.11
2019-02-23T01:44:58.667Z,3.10
2019-02-23T01:45:58.676Z,3.10
2019-02-23T01:46:58.685Z,3.15
2019-02-23T01:47:58.694Z,3.13
2019-02-23T01:48:58.702Z,3.03
2019-02-23T01:49:59.368Z,3.03
2019-02-23T01:50:58.723Z,3.10
2019-02-23T01:51:58.733Z,3.08
2019-02-23T01:52:58.737Z,3.06
2019-02-23T01:53:58.748Z,2.99
2019-02-23T01:54:58.757Z,3.08
2019-02-23T01:55:58.766Z,2.99
2019-02-23T01:56:58.773Z,3.10
2019-02-23T01:57:58.787Z,3.02
2019-02-23T01:58:58.796Z,3.02
2019-02-23T01:59:58.800Z,3.03
2019-02-23T02:00:58.812Z,3.08
2019-02-23T02:01:58.818Z,3.06
2019-02-23T02:02:58.826Z,3.08
2019-02-23T02:03:58.839Z,3.05
2019-02-23T02:04:58.844Z,3.05
2019-02-23T02:05:58.852Z,3.06
2019-02-23T02:06:58.862Z,3.03
2019-02-23T02:07:58.872Z,3.08
2019-02-23T02:08:58.882Z,3.06
2019-02-23T02:09:58.889Z,3.03
2019-02-23T02:10:58.898Z,3.05
2019-02-23T02:11:58.906Z,3.10
2019-02-23T02:12:58.919Z,2.99
2019-02-23T02:13:58.924Z,3.02
2019-02-23T02:14:58.935Z,3.06
2019-02-23T02:15:58.947Z,3.10
2019-02-23T02:16:58.951Z,3.02
2019-02-23T02:17:58.961Z,3.06
2019-02-23T02:18:58.968Z,3.03
2019-02-23T02:20:10.161Z,3.06
2019-02-23T02:20:58.987Z,3.02
2019-02-23T02:21:58.995Z,2.97
2019-02-23T02:22:59.005Z,3.05
2019-02-23T02:23:59.017Z,3.05
2019-02-23T02:24:59.023Z,3.03
2019-02-23T02:25:59.032Z,3.03
2019-02-23T02:26:59.042Z,3.03
2019-02-23T02:27:59.055Z,3.00
2019-02-23T02:28:59.065Z,2.96
2019-02-23T02:29:59.067Z,2.90
2019-02-23T02:30:59.074Z,2.96
2019-02-23T02:31:59.084Z,2.90
2019-02-23T02:32:59.094Z,2.92
2019-02-23T02:33:59.101Z,2.89
2019-02-23T02:34:59.110Z,2.90
2019-02-23T02:35:59.123Z,2.89
2019-02-23T02:36:59.130Z,2.93
2019-02-23T02:37:59.136Z,2.93
2019-02-23T02:38:59.147Z,2.87
2019-02-23T02:39:59.155Z,2.93
2019-02-23T02:40:59.163Z,2.81
2019-02-23T02:41:59.177Z,2.79
2019-02-23T02:42:59.197Z,2.82
2019-02-23T02:43:59.189Z,2.75
2019-02-23T02:44:59.198Z,2.77
2019-02-23T02:45:59.210Z,2.75
2019-02-23T02:46:59.352Z,2.82
2019-02-23T02:47:59.229Z,2.77
2019-02-23T02:48:59.232Z,2.79
2019-02-23T02:49:59.240Z,2.79
2019-02-23T02:50:59.249Z,2.87
2019-02-23T02:51:59.259Z,2.90
2019-02-23T02:52:59.266Z,2.77
2019-02-23T02:53:59.280Z,2.79
2019-02-23T02:54:59.285Z,2.87
2019-02-23T02:55:59.295Z,2.79
2019-02-23T02:56:59.301Z,2.82
2019-02-23T02:57:59.317Z,2.87
2019-02-23T02:58:59.317Z,2.89
2019-02-23T02:59:59.329Z,2.78
2019-02-23T03:00:59.337Z,2.85
2019-02-23T03:01:59.354Z,2.85
2019-02-23T03:02:59.356Z,2.87
2019-02-23T03:03:59.364Z,2.78
2019-02-23T03:04:59.374Z,2.81
2019-02-23T03:05:59.381Z,2.84
2019-02-23T03:06:59.393Z,2.77
2019-02-23T03:07:59.397Z,2.77
2019-02-23T03:08:59.402Z,2.74
2019-02-23T03:09:59.416Z,2.79
2019-02-23T03:10:59.431Z,2.77
2019-02-23T03:11:59.430Z,2.75
2019-02-23T03:12:59.440Z,2.74
2019-02-23T03:13:59.445Z,2.77
2019-02-23T03:14:59.458Z,2.72
2019-02-23T03:15:59.473Z,2.75
2019-02-23T03:16:59.474Z,2.77
2019-02-23T03:17:59.483Z,2.66
2019-02-23T03:18:59.490Z,2.64
2019-02-23T03:19:59.499Z,2.60
2019-02-23T03:20:59.516Z,2.63
2019-02-23T03:21:59.514Z,2.67
2019-02-23T03:22:59.523Z,2.67
2019-02-23T03:23:59.531Z,2.63
2019-02-23T03:24:59.542Z,2.74
2019-02-23T03:25:59.549Z,2.78
2019-02-23T03:26:59.556Z,2.77
2019-02-23T03:27:59.572Z,2.78
2019-02-23T03:28:59.572Z,2.77
2019-02-23T03:29:59.581Z,2.71
2019-02-23T03:30:59.593Z,2.77
2019-02-23T03:31:59.600Z,2.77
2019-02-23T03:32:59.632Z,2.78
2019-02-23T03:33:59.801Z,2.77
2019-02-23T03:34:59.634Z,2.75
2019-02-23T03:35:59.633Z,2.72
2019-02-23T03:36:59.643Z,2.69
2019-02-23T03:37:59.648Z,2.69
2019-02-23T03:38:59.659Z,2.77
2019-02-23T03:39:59.673Z,2.77
2019-02-23T03:40:59.672Z,2.78
2019-02-23T03:41:59.681Z,2.74
2019-02-23T03:42:59.690Z,2.72
2019-02-23T03:43:59.700Z,2.75
2019-02-23T03:44:59.708Z,2.72
2019-02-23T03:45:59.717Z,2.77
2019-02-23T03:46:59.727Z,2.78
2019-02-23T03:47:59.737Z,2.75
2019-02-23T03:48:59.742Z,2.75
2019-02-23T03:49:59.750Z,2.74
2019-02-23T03:50:59.760Z,2.78
2019-02-23T03:51:59.772Z,2.78
2019-02-23T03:52:59.778Z,2.79
2019-02-23T03:53:59.785Z,2.78
2019-02-23T03:54:59.799Z,2.75
2019-02-23T03:55:59.803Z,2.77
2019-02-23T03:56:59.812Z,2.72
2019-02-23T03:57:59.820Z,2.74
2019-02-23T03:58:59.827Z,2.77
2019-02-23T03:59:59.840Z,2.78
2019-02-23T04:00:59.850Z,2.78
2019-02-23T04:01:59.856Z,2.85
2019-02-23T04:02:59.862Z,2.84
2019-02-23T04:03:59.871Z,2.85
2019-02-23T04:04:59.878Z,2.85
2019-02-23T04:05:59.887Z,2.82
2019-02-23T04:06:59.902Z,2.89
2019-02-23T04:07:59.905Z,2.90
2019-02-23T04:09:02.671Z,2.74
2019-02-23T04:09:59.922Z,2.85
2019-02-23T04:10:59.933Z,2.92
2019-02-23T04:11:59.936Z,2.85
2019-02-23T04:12:59.948Z,2.95
2019-02-23T04:13:59.954Z,2.90
2019-02-23T04:14:59.965Z,2.93
2019-02-23T04:15:59.972Z,2.89
2019-02-23T04:16:59.983Z,2.92
2019-02-23T04:17:59.991Z,2.92
2019-02-23T04:18:59.998Z,2.89
2019-02-23T04:20:00.011Z,2.81
2019-02-23T04:21:01.978Z,2.96
2019-02-23T04:22:00.025Z,2.84
2019-02-23T04:23:00.036Z,2.89
2019-02-23T04:24:00.048Z,2.92
2019-02-23T04:25:00.050Z,2.93
2019-02-23T04:26:00.062Z,2.84
2019-02-23T04:27:00.068Z,2.90
2019-02-23T04:28:00.076Z,2.90
2019-02-23T04:29:00.082Z,2.87
2019-02-23T04:30:00.151Z,2.93
2019-02-23T04:31:00.099Z,2.92
2019-02-23T04:32:00.108Z,2.89
2019-02-23T04:33:00.117Z,2.90
2019-02-23T04:34:00.127Z,2.81
2019-02-23T04:35:00.408Z,2.78
2019-02-23T04:36:00.144Z,2.77
2019-02-23T04:37:00.154Z,2.82
2019-02-23T04:38:00.162Z,2.74
2019-02-23T04:39:00.170Z,2.78
2019-02-23T04:40:00.529Z,2.85
2019-02-23T04:41:00.186Z,2.87
2019-02-23T04:42:00.194Z,2.82
2019-02-23T04:43:00.202Z,2.85
2019-02-23T04:44:00.208Z,2.77
2019-02-23T04:45:00.336Z,2.78
2019-02-23T04:46:00.225Z,2.78
2019-02-23T04:47:00.233Z,2.74
2019-02-23T04:48:00.243Z,2.79
2019-02-23T04:49:00.253Z,2.75
2019-02-23T04:50:00.329Z,2.75
2019-02-23T04:51:00.272Z,2.69
2019-02-23T04:52:00.277Z,2.79
2019-02-23T04:53:00.284Z,2.74
2019-02-23T04:54:00.295Z,2.77
2019-02-23T04:55:00.329Z,2.77
2019-02-23T04:56:00.313Z,2.71
2019-02-23T04:57:00.326Z,2.78
2019-02-23T04:58:00.329Z,2.74
2019-02-23T04:59:00.336Z,2.67
2019-02-23T05:00:00.374Z,2.84
2019-02-23T05:01:00.353Z,2.79
2019-02-23T05:02:00.364Z,2.78
2019-02-23T05:03:00.369Z,2.79
2019-02-23T05:04:00.378Z,2.79
2019-02-23T05:05:00.386Z,2.78
2019-02-23T05:06:00.398Z,2.79
2019-02-23T05:07:00.407Z,2.77
2019-02-23T05:08:00.413Z,2.87
2019-02-23T05:09:00.428Z,2.81
2019-02-23T05:10:00.438Z,2.89
2019-02-23T05:11:00.439Z,2.77
2019-02-23T05:12:00.447Z,2.79
2019-02-23T05:13:00.457Z,2.74
2019-02-23T05:14:00.464Z,2.75
2019-02-23T05:15:00.477Z,2.78
2019-02-23T05:16:00.489Z,2.72
2019-02-23T05:17:00.488Z,2.72
2019-02-23T05:18:00.501Z,2.74
2019-02-23T05:19:00.508Z,2.72
2019-02-23T05:20:00.516Z,2.77
2019-02-23T05:21:00.522Z,2.77
2019-02-23T05:22:00.537Z,2.71
2019-02-23T05:23:00.543Z,2.81
2019-02-23T05:24:00.549Z,2.85
2019-02-23T05:25:00.558Z,2.89
2019-02-23T05:26:00.570Z,2.78
2019-02-23T05:27:00.575Z,2.81
2019-02-23T05:28:00.582Z,2.81
2019-02-23T05:29:00.591Z,2.85
2019-02-23T05:30:00.601Z,2.89
2019-02-23T05:31:00.611Z,2.93
2019-02-23T05:32:00.616Z,2.81
2019-02-23T05:33:00.624Z,2.84
2019-02-23T05:34:00.633Z,2.90
2019-02-23T05:35:00.641Z,2.96
2019-02-23T05:36:00.650Z,2.93
2019-02-23T05:37:00.657Z,2.95
2019-02-23T05:38:00.756Z,2.97
2019-02-23T05:39:00.679Z,2.97
2019-02-23T05:40:00.686Z,3.03
2019-02-23T05:41:00.694Z,2.97
2019-02-23T05:42:00.703Z,2.99
2019-02-23T05:43:01.437Z,3.00
2019-02-23T05:44:00.717Z,2.99
2019-02-23T05:45:00.728Z,2.97
2019-02-23T05:46:00.735Z,2.92
2019-02-23T05:47:00.745Z,2.89
2019-02-23T05:48:00.750Z,2.96
2019-02-23T05:49:00.760Z,2.93
2019-02-23T05:50:00.768Z,2.99
2019-02-23T05:51:00.784Z,2.96
2019-02-23T05:52:00.784Z,3.02
2019-02-23T05:53:00.795Z,2.99
2019-02-23T05:54:00.806Z,2.95
2019-02-23T05:55:00.816Z,2.90
2019-02-23T05:56:00.817Z,2.89
2019-02-23T05:57:00.828Z,2.95
2019-02-23T05:58:00.837Z,2.92
2019-02-23T05:59:00.852Z,2.92
2019-02-23T06:00:00.852Z,2.92
2019-02-23T06:01:00.861Z,2.93
2019-02-23T06:02:00.870Z,2.92
2019-02-23T06:03:00.877Z,2.90
2019-02-23T06:04:00.890Z,2.89
2019-02-23T06:05:00.895Z,2.95
2019-02-23T06:06:00.901Z,2.89
2019-02-23T06:07:00.912Z,2.87
2019-02-23T06:08:00.921Z,2.92
2019-02-23T06:09:00.930Z,2.85
2019-02-23T06:10:00.941Z,2.77
2019-02-23T06:11:00.949Z,2.75
2019-02-23T06:12:00.955Z,2.78
2019-02-23T06:13:00.962Z,2.79
2019-02-23T06:14:00.976Z,2.71
2019-02-23T06:15:00.980Z,2.75
2019-02-23T06:16:00.996Z,2.67
2019-02-23T06:17:03.831Z,2.75
2019-02-23T06:18:01.007Z,2.75
2019-02-23T06:19:01.015Z,2.78
2019-02-23T06:20:01.021Z,2.84
2019-02-23T06:21:01.034Z,2.92
2019-02-23T06:22:01.038Z,2.99
2019-02-23T06:23:01.049Z,3.02
2019-02-23T06:24:01.056Z,3.02
2019-02-23T06:25:01.066Z,3.03
2019-02-23T06:26:01.077Z,3.05
2019-02-23T06:27:01.081Z,3.11
2019-02-23T06:28:01.092Z,3.02
2019-02-23T06:29:01.099Z,3.02
2019-02-23T06:30:01.106Z,3.00
2019-02-23T06:31:01.115Z,3.02
2019-02-23T06:32:01.123Z,3.00
2019-02-23T06:33:01.136Z,2.99
2019-02-23T06:34:01.141Z,2.92
2019-02-23T06:35:01.149Z,2.93
2019-02-23T06:36:01.160Z,2.96
2019-02-23T06:37:01.166Z,2.92
2019-02-23T06:38:01.175Z,2.90
2019-02-23T06:39:01.183Z,2.93
2019-02-23T06:40:01.193Z,2.99
2019-02-23T06:41:01.202Z,3.03
2019-02-23T06:42:01.208Z,2.96
2019-02-23T06:43:01.219Z,3.03
2019-02-23T06:44:01.227Z,2.99
2019-02-23T06:45:01.262Z,2.96
2019-02-23T06:46:01.241Z,3.06
2019-02-23T06:47:01.256Z,3.02
2019-02-23T06:48:01.259Z,3.05
2019-02-23T06:49:01.270Z,2.95
2019-02-23T06:50:01.283Z,3.02
2019-02-23T06:51:01.286Z,2.95
2019-02-23T06:52:04.186Z,3.03
2019-02-23T06:53:01.301Z,3.05
2019-02-23T06:54:01.310Z,2.99
2019-02-23T06:55:01.324Z,3.02
2019-02-23T06:56:01.326Z,3.03
2019-02-23T06:57:01.350Z,2.93
2019-02-23T06:58:01.344Z,3.00
2019-02-23T06:59:01.353Z,3.02
2019-02-23T07:00:01.589Z,3.02
2019-02-23T07:01:01.370Z,3.02
2019-02-23T07:02:01.381Z,3.02
2019-02-23T07:03:01.388Z,2.99
2019-02-23T07:04:01.405Z,2.96
2019-02-23T07:05:01.403Z,3.03
2019-02-23T07:06:01.413Z,2.95
2019-02-23T07:07:01.422Z,3.02
2019-02-23T07:08:01.436Z,3.06
2019-02-23T07:09:01.437Z,3.06
2019-02-23T07:10:01.453Z,3.00
2019-02-23T07:11:01.454Z,3.02
2019-02-23T07:12:01.463Z,3.03
2019-02-23T07:13:01.472Z,3.08
2019-02-23T07:14:01.483Z,3.03
2019-02-23T07:15:01.494Z,3.02
2019-02-23T07:16:01.500Z,3.11
2019-02-23T07:17:01.505Z,3.08
2019-02-23T07:18:01.513Z,3.05
2019-02-23T07:19:01.522Z,3.02
2019-02-23T07:20:01.531Z,3.05
2019-02-23T07:21:01.539Z,3.03
2019-02-23T07:22:01.547Z,3.02
2019-02-23T07:23:01.561Z,3.08
2019-02-23T07:24:01.565Z,3.11
2019-02-23T07:25:01.576Z,3.10
2019-02-23T07:26:01.585Z,3.10
2019-02-23T07:27:01.590Z,3.06
2019-02-23T07:28:01.599Z,3.13
2019-02-23T07:29:01.613Z,3.06
2019-02-23T07:30:01.620Z,3.14
2019-02-23T07:31:01.625Z,3.15
2019-02-23T07:32:01.633Z,3.21
2019-02-23T07:33:01.639Z,3.14
2019-02-23T07:34:01.649Z,3.24
2019-02-23T07:35:01.663Z,3.24
2019-02-23T07:36:01.669Z,3.20
2019-02-23T07:37:01.674Z,3.20
2019-02-23T07:38:01.683Z,3.23
2019-02-23T07:39:01.691Z,3.21
2019-02-23T07:40:01.705Z,3.20
2019-02-23T07:41:01.714Z,3.28
2019-02-23T07:42:01.720Z,3.32
2019-02-23T07:43:01.726Z,3.43
2019-02-23T07:44:03.468Z,3.33
2019-02-23T07:45:01.742Z,3.39
2019-02-23T07:46:01.756Z,3.36
2019-02-23T07:47:01.763Z,3.39
2019-02-23T07:48:01.778Z,3.31
2019-02-23T07:49:01.781Z,3.39
2019-02-23T07:50:01.785Z,3.35
2019-02-23T07:51:01.794Z,3.36
2019-02-23T07:52:01.805Z,3.40
2019-02-23T07:53:01.816Z,3.43
2019-02-23T07:54:01.821Z,3.29
2019-02-23T07:55:01.832Z,3.33
2019-02-23T07:56:01.844Z,3.43
2019-02-23T07:57:01.854Z,3.28
2019-02-23T07:58:01.854Z,3.47
2019-02-23T07:59:01.868Z,3.45
2019-02-23T08:00:01.875Z,3.50
2019-02-23T08:01:01.885Z,3.48
2019-02-23T08:02:01.894Z,3.57
2019-02-23T08:03:01.899Z,3.55
2019-02-23T08:04:01.910Z,3.58
2019-02-23T08:05:01.925Z,3.65
2019-02-23T08:06:01.930Z,3.96
2019-02-23T08:07:01.944Z,4.18
2019-02-23T08:08:01.946Z,4.29
2019-02-23T08:09:01.954Z,4.54
2019-02-23T08:10:01.969Z,4.70
2019-02-23T08:11:01.973Z,4.82
2019-02-23T08:12:01.981Z,5.04
2019-02-23T08:13:01.988Z,5.33
2019-02-23T08:14:02.000Z,5.54
2019-02-23T08:15:02.009Z,5.65
2019-02-23T08:16:02.023Z,5.67
2019-02-23T08:17:02.026Z,5.78
2019-02-23T08:18:02.040Z,5.90
2019-02-23T08:19:02.047Z,6.04
2019-02-23T08:20:02.055Z,6.03
2019-02-23T08:21:02.066Z,6.09
2019-02-23T08:22:02.074Z,6.06
2019-02-23T08:23:02.083Z,6.15
2019-02-23T08:24:02.096Z,6.27
2019-02-23T08:25:02.102Z,6.31
2019-02-23T08:26:02.112Z,6.46
2019-02-23T08:27:02.119Z,6.73
2019-02-23T08:28:02.130Z,6.66
2019-02-23T08:29:02.138Z,6.59
2019-02-23T08:30:02.149Z,6.70
2019-02-23T08:31:02.157Z,6.81
2019-02-23T08:32:02.171Z,6.80
2019-02-23T08:33:02.176Z,6.62
2019-02-23T08:34:02.195Z,6.66
2019-02-23T08:35:02.197Z,6.59
2019-02-23T08:36:02.208Z,6.62
2019-02-23T08:37:02.215Z,6.79
2019-02-23T08:38:02.229Z,6.94
2019-02-23T08:39:02.237Z,6.94
2019-02-23T08:40:02.248Z,6.94
2019-02-23T08:41:02.255Z,7.02
2019-02-23T08:42:02.270Z,7.03
2019-02-23T08:43:02.275Z,6.87
2019-02-23T08:44:02.287Z,6.85
2019-02-23T08:45:02.294Z,6.84
2019-02-23T08:46:02.304Z,6.76
2019-02-23T08:47:02.315Z,6.77
2019-02-23T08:48:02.326Z,6.80
2019-02-23T08:49:02.334Z,6.95
2019-02-23T08:50:02.347Z,6.87
2019-02-23T08:51:02.356Z,6.89
2019-02-23T08:52:02.366Z,6.88
2019-02-23T08:53:02.382Z,6.92
2019-02-23T08:54:02.387Z,7.03
2019-02-23T08:55:02.396Z,7.32
2019-02-23T08:56:02.410Z,7.39
2019-02-23T08:57:02.416Z,7.17
2019-02-23T08:58:02.426Z,6.99
2019-02-23T08:59:02.436Z,7.03
2019-02-23T09:00:02.459Z,6.92
2019-02-23T09:01:02.457Z,7.07
2019-02-23T09:02:02.469Z,7.32
2019-02-23T09:03:02.481Z,7.27
2019-02-23T09:04:02.490Z,6.99
2019-02-23T09:05:02.499Z,7.13
2019-02-23T09:06:02.511Z,7.07
2019-02-23T09:07:02.521Z,7.12
2019-02-23T09:08:02.532Z,7.24
2019-02-23T09:09:02.543Z,7.30
2019-02-23T09:10:02.554Z,7.10
2019-02-23T09:11:02.566Z,7.06
2019-02-23T09:12:02.575Z,7.12
2019-02-23T09:13:02.585Z,7.23
2019-02-23T09:14:02.594Z,7.57
2019-02-23T09:15:02.605Z,7.52
2019-02-23T09:16:02.621Z,7.61
2019-02-23T09:17:02.628Z,7.57
2019-02-23T09:18:02.638Z,7.30
2019-02-23T09:19:02.651Z,7.23
2019-02-23T09:20:02.659Z,7.32
2019-02-23T09:21:02.671Z,7.58
2019-02-23T09:22:02.681Z,7.74
2019-02-23T09:23:02.698Z,7.72
2019-02-23T09:24:02.707Z,7.75
2019-02-23T09:25:02.717Z,7.95
2019-02-23T09:26:02.726Z,8.01
2019-02-23T09:27:02.739Z,7.93
2019-02-23T09:28:02.749Z,8.08
2019-02-23T09:29:02.759Z,8.30
2019-02-23T09:30:02.768Z,8.38
2019-02-23T09:31:03.638Z,8.50
2019-02-23T09:32:02.791Z,8.30
2019-02-23T09:33:02.802Z,8.55
2019-02-23T09:34:02.814Z,8.29
2019-02-23T09:35:02.825Z,8.23
2019-02-23T09:36:02.838Z,8.12
2019-02-23T09:37:02.849Z,8.26
2019-02-23T09:38:02.857Z,8.37
2019-02-23T09:39:02.871Z,8.43
2019-02-23T09:40:02.880Z,8.50
2019-02-23T09:41:02.890Z,8.74
2019-02-23T09:42:07.388Z,8.70
2019-02-23T09:43:02.915Z,8.38
2019-02-23T09:44:02.932Z,8.33
2019-02-23T09:45:02.943Z,8.59
2019-02-23T09:46:02.950Z,8.80
2019-02-23T09:47:02.965Z,8.98
2019-02-23T09:48:02.974Z,8.81
2019-02-23T09:49:02.986Z,8.81
2019-02-23T09:50:02.997Z,8.96
2019-02-23T09:51:03.012Z,9.13
2019-02-23T09:52:03.019Z,9.05
2019-02-23T09:53:10.802Z,9.14
2019-02-23T09:54:03.043Z,9.40
2019-02-23T09:55:03.054Z,9.60
2019-02-23T09:56:03.068Z,9.58
2019-02-23T09:57:03.083Z,9.64
2019-02-23T09:58:03.092Z,9.66
2019-02-23T09:59:03.106Z,10.04
2019-02-23T10:00:03.117Z,9.97
2019-02-23T10:01:03.129Z,9.93
2019-02-23T10:02:03.142Z,9.69
2019-02-23T10:03:03.152Z,9.15
2019-02-23T10:04:03.164Z,9.02
2019-02-23T10:05:03.178Z,9.11
2019-02-23T10:06:03.189Z,9.11
2019-02-23T10:07:03.206Z,8.91
2019-02-23T10:08:03.220Z,8.95
2019-02-23T10:09:03.228Z,8.83
2019-02-23T10:10:03.240Z,9.35
2019-02-23T10:11:03.252Z,9.42
2019-02-23T10:12:03.267Z,9.15
2019-02-23T10:13:03.277Z,9.48
2019-02-23T10:14:03.290Z,9.89
2019-02-23T10:15:03.307Z,9.96
2019-02-23T10:16:03.324Z,10.20
2019-02-23T10:17:03.329Z,10.17
2019-02-23T10:18:03.342Z,10.23
2019-02-23T10:19:03.355Z,10.32
2019-02-23T10:20:03.369Z,10.17
2019-02-23T10:21:03.380Z,9.86
2019-02-23T10:22:03.398Z,9.72
2019-02-23T10:23:03.406Z,10.01
2019-02-23T10:24:03.421Z,10.01
2019-02-23T10:25:03.431Z,10.55
2019-02-23T10:26:03.446Z,10.52
2019-02-23T10:27:03.463Z,10.59
2019-02-23T10:28:03.471Z,10.47
2019-02-23T10:29:03.486Z,10.55
2019-02-23T10:30:03.498Z,10.38
2019-02-23T10:31:03.517Z,10.45
2019-02-23T10:32:03.524Z,10.34
2019-02-23T10:33:03.540Z,10.48
2019-02-23T10:34:03.550Z,10.85
2019-02-23T10:35:03.565Z,10.97
2019-02-23T10:36:03.584Z,10.92
2019-02-23T10:37:03.594Z,11.42
2019-02-23T10:38:03.604Z,11.86
2019-02-23T10:39:03.620Z,11.72
2019-02-23T10:40:03.636Z,11.95
2019-02-23T10:41:03.649Z,11.91
2019-02-23T10:42:03.665Z,11.73
2019-02-23T10:43:03.675Z,11.55
2019-02-23T10:44:03.690Z,11.85
2019-02-23T10:45:03.709Z,11.95
2019-02-23T10:46:03.719Z,11.57
2019-02-23T10:47:03.732Z,11.52
2019-02-23T10:48:03.745Z,11.76
2019-02-23T10:49:03.758Z,11.95
2019-02-23T10:50:03.777Z,11.78
2019-02-23T10:51:03.790Z,11.95
2019-02-23T10:52:03.811Z,11.82
2019-02-23T10:53:03.819Z,11.49
2019-02-23T10:54:03.831Z,11.61
2019-02-23T10:55:03.852Z,11.44
2019-02-23T10:56:03.860Z,11.64
2019-02-23T10:57:03.877Z,11.98
2019-02-23T10:58:03.887Z,12.29
2019-02-23T10:59:03.903Z,12.02
2019-02-23T11:00:03.919Z,12.16
2019-02-23T11:01:03.933Z,11.86
2019-02-23T11:02:03.951Z,11.24
2019-02-23T11:03:03.962Z,11.10
2019-02-23T11:04:03.975Z,11.37
2019-02-23T11:05:03.991Z,11.76
2019-02-23T11:06:04.007Z,11.65
2019-02-23T11:07:04.021Z,11.33
2019-02-23T11:08:04.037Z,11.44
2019-02-23T11:09:04.050Z,11.69
2019-02-23T11:10:04.064Z,11.82
2019-02-23T11:11:04.079Z,12.34
2019-02-23T11:12:04.097Z,12.28
2019-02-23T11:13:04.107Z,12.47
2019-02-23T11:14:04.126Z,12.62
2019-02-23T11:15:04.139Z,12.85
2019-02-23T11:16:04.157Z,12.92
2019-02-23T11:17:04.168Z,13.08
2019-02-23T11:18:04.183Z,13.12
2019-02-23T11:19:04.200Z,13.14
2019-02-23T11:20:04.221Z,12.85
2019-02-23T11:21:04.234Z,12.59
2019-02-23T11:22:04.250Z,12.96
2019-02-23T11:23:04.268Z,13.33
2019-02-23T11:24:04.275Z,13.36
2019-02-23T11:25:04.292Z,12.93
2019-02-23T11:26:04.308Z,12.32
2019-02-23T11:27:04.326Z,12.72
2019-02-23T11:28:04.339Z,13.12
2019-02-23T11:29:04.353Z,13.38
2019-02-23T11:30:04.372Z,13.81
2019-02-23T11:31:04.386Z,13.89
2019-02-23T11:32:04.406Z,13.97
2019-02-23T11:33:04.418Z,13.92
2019-02-23T11:34:04.436Z,13.92
2019-02-23T11:35:04.451Z,13.66
2019-02-23T11:36:04.468Z,13.51
2019-02-23T11:37:04.481Z,13.44
2019-02-23T11:38:04.500Z,13.54
2019-02-23T11:39:04.514Z,13.71
2019-02-23T11:40:04.531Z,13.95
2019-02-23T11:41:04.555Z,13.91
2019-02-23T11:42:04.565Z,13.88
2019-02-23T11:43:04.580Z,14.02
2019-02-23T11:44:04.614Z,14.15
2019-02-23T11:45:04.614Z,13.97
2019-02-23T11:46:04.631Z,13.67
2019-02-23T11:47:04.644Z,13.05
2019-02-23T11:48:04.662Z,13.26
2019-02-23T11:49:04.681Z,13.07
2019-02-23T11:50:04.695Z,12.17
2019-02-23T11:51:04.712Z,11.78
2019-02-23T11:52:04.731Z,11.15
2019-02-23T11:53:04.747Z,11.03
2019-02-23T11:54:04.766Z,11.37
2019-02-23T11:55:04.778Z,11.49
2019-02-23T11:56:04.797Z,11.65
2019-02-23T11:57:04.810Z,11.86
2019-02-23T11:58:04.826Z,11.76
2019-02-23T11:59:04.846Z,12.21
2019-02-23T12:00:04.860Z,12.39
2019-02-23T12:01:04.879Z,12.29
2019-02-23T12:02:04.895Z,12.37
2019-02-23T12:03:04.908Z,12.34
2019-02-23T12:04:04.928Z,12.45
2019-02-23T12:05:04.943Z,12.45
2019-02-23T12:06:04.961Z,12.59
2019-02-23T12:07:04.977Z,12.60
2019-02-23T12:08:04.995Z,13.11
2019-02-23T12:09:05.006Z,13.26
2019-02-23T12:10:05.025Z,13.20
2019-02-23T12:11:05.038Z,13.00
2019-02-23T12:12:05.060Z,12.89
2019-02-23T12:13:05.074Z,12.78
2019-02-23T12:14:05.091Z,12.90
2019-02-23T12:15:05.106Z,13.19
2019-02-23T12:16:05.120Z,12.90
2019-02-23T12:17:05.143Z,13.25
2019-02-23T12:18:05.166Z,13.33
2019-02-23T12:19:05.171Z,13.14
2019-02-23T12:20:05.186Z,12.29
2019-02-23T12:21:05.201Z,11.99
2019-02-23T12:22:12.204Z,11.58
2019-02-23T12:23:05.236Z,11.65
2019-02-23T12:24:06.307Z,12.04
2019-02-23T12:25:05.265Z,12.29
2019-02-23T12:26:05.287Z,12.45
2019-02-23T12:27:05.302Z,12.77
2019-02-23T12:28:05.316Z,13.23
2019-02-23T12:29:05.331Z,13.49
2019-02-23T12:30:05.348Z,13.17
2019-02-23T12:31:05.367Z,12.56
2019-02-23T12:32:05.382Z,11.82
2019-02-23T12:33:05.396Z,11.75
2019-02-23T12:34:05.412Z,11.82
2019-02-23T12:35:05.432Z,12.38
2019-02-23T12:36:05.449Z,12.56
2019-02-23T12:37:05.465Z,13.07
2019-02-23T12:38:05.477Z,13.64
2019-02-23T12:39:05.501Z,13.54
2019-02-23T12:40:05.512Z,13.08
2019-02-23T12:41:05.531Z,13.22
2019-02-23T12:42:05.545Z,12.56
2019-02-23T12:43:05.559Z,12.41
2019-02-23T12:44:05.579Z,12.96
2019-02-23T12:45:05.591Z,13.45
2019-02-23T12:46:05.611Z,13.30
2019-02-23T12:47:05.626Z,13.11
2019-02-23T12:48:05.642Z,13.17
2019-02-23T12:49:05.661Z,13.55
2019-02-23T12:50:05.675Z,13.54
2019-02-23T12:51:05.692Z,13.71
2019-02-23T12:52:05.710Z,13.64
2019-02-23T12:53:05.725Z,13.99
2019-02-23T12:54:16.413Z,14.28
2019-02-23T12:55:05.758Z,13.71
2019-02-23T12:56:05.776Z,13.69
2019-02-23T12:57:05.791Z,13.70
2019-02-23T12:58:05.809Z,13.63
2019-02-23T12:59:05.825Z,13.28
2019-02-23T13:00:05.843Z,13.22
2019-02-23T13:01:05.858Z,13.42
2019-02-23T13:02:05.878Z,13.15
2019-02-23T13:03:05.893Z,13.36
2019-02-23T13:04:05.909Z,13.10
2019-02-23T13:05:05.929Z,12.42
2019-02-23T13:06:05.951Z,12.50
2019-02-23T13:07:06.018Z,13.01
2019-02-23T13:08:05.977Z,13.11
2019-02-23T13:09:05.994Z,12.83
2019-02-23T13:10:06.016Z,12.52
2019-02-23T13:11:06.028Z,12.74
2019-02-23T13:12:06.047Z,12.59
2019-02-23T13:13:06.065Z,12.16